Time;durP1;ratioP1;P1;durP2;ratioP2;P2;SDS_P1;SDS_P2;PMS_P1;PMS_P2;Temp;Humidity;BMP_temperature;BMP_pressure;BME280_temperature;BME280_humidity;BME280_pressure;Samples;Min_cycle;Max_cycle;Signal;HPM_P1;HPM_P2
2022/03/11 00:00:42;;;;;;;2.20;2.00;;;17.50;58.40;;;;;;5222679;28;20287;-65
2022/03/11 00:03:34;;;;;;;2.23;1.90;;;17.50;58.50;;;;;;5227397;28;20578;-65
2022/03/11 00:06:26;;;;;;;2.33;2.13;;;17.50;58.50;;;;;;5226736;28;20626;-65
2022/03/11 00:09:19;;;;;;;2.90;2.10;;;17.50;58.40;;;;;;5227064;28;20200;-65
2022/03/11 00:12:11;;;;;;;3.57;2.10;;;17.50;58.40;;;;;;5226836;28;20205;-65
2022/03/11 00:15:06;;;;;;;3.00;2.13;;;17.50;59.00;;;;;;5227161;28;20202;-65
2022/03/11 00:17:58;;;;;;;3.17;2.40;;;17.50;58.40;;;;;;5226993;28;20201;-65
2022/03/11 00:20:50;;;;;;;2.60;2.30;;;17.50;58.40;;;;;;5228618;22;20230;-66
2022/03/11 00:23:43;;;;;;;2.23;2.03;;;17.50;58.30;;;;;;5206195;28;20218;-66
2022/03/11 00:26:35;;;;;;;3.30;2.17;;;17.50;58.30;;;;;;5219289;28;20331;-66
2022/03/11 00:29:28;;;;;;;2.87;2.50;;;17.50;58.30;;;;;;5221618;28;20594;-66
2022/03/11 00:32:21;;;;;;;2.80;1.80;;;17.50;58.30;;;;;;5204779;28;20190;-66
2022/03/11 00:35:14;;;;;;;1.83;1.60;;;17.50;58.30;;;;;;5213410;28;20242;-66
2022/03/11 00:38:06;;;;;;;2.33;2.10;;;17.50;58.30;;;;;;5206130;28;20197;-66
2022/03/11 00:40:58;;;;;;;2.20;2.00;;;17.50;58.30;;;;;;5212724;28;20221;-66
2022/03/11 00:43:50;;;;;;;3.87;2.23;;;17.50;58.30;;;;;;5209214;28;20263;-65
2022/03/11 00:46:43;;;;;;;2.27;1.97;;;17.50;58.30;;;;;;5226694;28;20189;-66
2022/03/11 00:49:36;;;;;;;2.30;2.10;;;17.50;58.30;;;;;;5220560;28;20283;-66
2022/03/11 00:52:29;;;;;;;3.63;2.43;;;17.50;58.20;;;;;;5211367;28;20201;-66
2022/03/11 00:55:21;;;;;;;2.67;2.47;;;17.50;58.30;;;;;;5207112;28;20328;-65
2022/03/11 00:58:13;;;;;;;2.30;2.10;;;17.50;58.30;;;;;;5210276;28;20320;-66
2022/03/11 01:01:05;;;;;;;2.93;2.13;;;17.50;58.30;;;;;;5226046;28;20370;-66
2022/03/11 01:03:57;;;;;;;2.63;2.17;;;17.50;58.20;;;;;;5224394;28;20758;-65
2022/03/11 01:06:51;;;;;;;2.20;2.00;;;17.50;58.80;;;;;;5208839;28;20269;-65
2022/03/11 01:09:43;;;;;;;3.50;2.13;;;17.50;58.20;;;;;;5205836;28;20197;-66
2022/03/11 01:12:37;;;;;;;3.20;2.10;;;17.50;58.20;;;;;;5209915;28;20201;-66
2022/03/11 01:15:29;;;;;;;2.43;2.00;;;17.50;58.30;;;;;;5205811;28;20190;-66
2022/03/11 01:18:21;;;;;;;2.57;2.00;;;17.50;58.20;;;;;;5205656;28;20216;-66
2022/03/11 01:21:13;;;;;;;2.40;2.03;;;17.50;58.10;;;;;;5206739;28;20221;-66
2022/03/11 01:24:07;;;;;;;2.13;1.90;;;17.50;58.10;;;;;;5206208;28;20296;-66
2022/03/11 01:26:59;;;;;;;2.47;2.10;;;17.50;58.10;;;;;;5205485;28;20212;-66
2022/03/11 01:29:51;;;;;;;2.77;2.03;;;17.50;58.20;;;;;;5205604;28;20725;-66
2022/03/11 01:32:44;;;;;;;2.10;1.87;;;17.50;58.10;;;;;;5206255;28;20233;-66
2022/03/11 01:35:36;;;;;;;2.60;1.97;;;17.50;58.20;;;;;;5204772;28;20222;-66
2022/03/11 01:38:28;;;;;;;2.73;2.07;;;17.50;58.10;;;;;;5205020;28;20198;-66
2022/03/11 01:41:22;;;;;;;2.03;1.83;;;17.50;58.10;;;;;;5204257;28;20218;-66
2022/03/11 01:44:14;;;;;;;2.23;2.00;;;17.50;58.10;;;;;;5204465;28;20305;-66
2022/03/11 01:47:07;;;;;;;1.93;1.80;;;17.50;58.10;;;;;;5204915;28;20250;-66
2022/03/11 01:49:59;;;;;;;2.63;2.10;;;17.50;58.10;;;;;;5204372;28;20229;-66
2022/03/11 01:52:51;;;;;;;2.40;2.00;;;17.50;58.10;;;;;;5203409;28;20194;-66
2022/03/11 01:55:43;;;;;;;2.53;1.90;;;17.50;58.10;;;;;;5204948;28;20252;-66
2022/03/11 01:58:38;;;;;;;2.63;2.03;;;17.50;58.10;;;;;;5207921;28;20190;-66
2022/03/11 02:01:30;;;;;;;2.27;1.90;;;17.50;58.10;;;;;;5204888;28;20408;-66
2022/03/11 02:04:23;;;;;;;2.40;2.20;;;17.50;58.10;;;;;;5204699;28;20347;-66
2022/03/11 02:07:15;;;;;;;2.53;2.30;;;17.50;58.00;;;;;;5204828;28;20194;-66
2022/03/11 02:10:07;;;;;;;2.60;2.03;;;17.50;58.10;;;;;;5204585;28;20742;-66
2022/03/11 02:13:05;;;;;;;2.47;2.27;;;17.50;58.00;;;;;;5203768;28;20206;-66
2022/03/11 02:15:58;;;;;;;2.53;2.03;;;17.40;58.00;;;;;;5205250;28;20192;-66
2022/03/11 02:18:51;;;;;;;3.17;2.20;;;17.40;58.00;;;;;;5204695;28;20567;-66
2022/03/11 02:21:45;;;;;;;2.00;1.80;;;17.50;58.00;;;;;;5204076;28;20210;-66
2022/03/11 02:24:38;;;;;;;3.23;2.20;;;17.50;57.90;;;;;;5204337;28;20218;-66
2022/03/11 02:27:35;;;;;;;2.03;1.83;;;17.40;57.90;;;;;;5211967;28;20204;-66
2022/03/11 02:30:28;;;;;;;2.40;2.20;;;17.50;58.00;;;;;;5203867;28;20767;-66
2022/03/11 02:33:20;;;;;;;3.07;2.17;;;17.50;57.90;;;;;;5203864;28;20196;-66
2022/03/11 02:36:12;;;;;;;1.93;1.83;;;17.40;57.90;;;;;;5208270;28;20221;-66
2022/03/11 02:39:06;;;;;;;2.60;2.00;;;17.40;57.90;;;;;;5224107;28;20200;-66
2022/03/11 02:42:01;;;;;;;2.23;2.00;;;17.50;57.90;;;;;;5223427;28;20605;-66
2022/03/11 02:44:53;;;;;;;2.57;2.10;;;17.50;57.90;;;;;;5216784;28;20205;-66
2022/03/11 02:47:45;;;;;;;2.83;2.30;;;17.50;57.90;;;;;;5205146;28;20730;-66
2022/03/11 02:50:37;;;;;;;2.83;2.20;;;17.50;57.90;;;;;;5203714;28;20228;-66
2022/03/11 02:53:29;;;;;;;2.50;2.23;;;17.50;57.80;;;;;;5221786;28;20193;-66
2022/03/11 02:56:22;;;;;;;3.33;1.93;;;17.50;57.90;;;;;;5203146;28;20204;-66
2022/03/11 02:59:16;;;;;;;2.37;1.93;;;17.40;57.80;;;;;;5221130;28;20197;-66
2022/03/11 03:02:08;;;;;;;2.83;2.20;;;17.50;57.80;;;;;;5223434;28;20201;-66
2022/03/11 03:05:01;;;;;;;2.47;2.20;;;17.50;57.70;;;;;;5224034;28;20213;-66
2022/03/11 03:07:53;;;;;;;2.47;2.10;;;17.40;57.70;;;;;;5224488;28;20208;-66
2022/03/11 03:10:45;;;;;;;2.70;2.10;;;17.50;57.70;;;;;;5218312;28;20706;-66
2022/03/11 03:13:38;;;;;;;2.50;2.00;;;17.50;57.80;;;;;;5207513;28;20552;-66
2022/03/11 03:16:31;;;;;;;2.07;1.90;;;17.40;57.70;;;;;;5207729;28;20190;-66
2022/03/11 03:19:23;;;;;;;2.50;2.10;;;17.50;57.80;;;;;;5207328;28;20198;-66
2022/03/11 03:22:16;;;;;;;1.90;1.80;;;17.40;57.70;;;;;;5207471;28;20344;-66
2022/03/11 03:25:09;;;;;;;3.03;2.30;;;17.40;58.30;;;;;;5221827;28;20217;-66
2022/03/11 03:28:01;;;;;;;4.10;2.40;;;17.50;57.70;;;;;;5221948;28;20651;-66
2022/03/11 03:30:53;;;;;;;2.20;2.00;;;17.40;57.60;;;;;;5207043;28;20625;-66
2022/03/11 03:33:47;;;;;;;4.23;2.00;;;17.50;57.70;;;;;;5207321;28;20255;-66
2022/03/11 03:36:39;;;;;;;2.60;2.10;;;17.40;57.70;;;;;;5207286;28;20685;-66
2022/03/11 03:39:31;;;;;;;2.53;2.20;;;17.40;57.70;;;;;;5206846;28;20189;-66
2022/03/11 03:42:24;;;;;;;2.83;2.07;;;17.50;57.70;;;;;;5207782;28;20190;-66
2022/03/11 03:45:17;;;;;;;1.87;1.67;;;17.40;57.60;;;;;;5225759;28;20217;-66
2022/03/11 03:48:09;;;;;;;2.97;1.90;;;17.40;57.60;;;;;;5208210;28;20719;-66
2022/03/11 03:51:05;;;;;;;2.73;2.00;;;17.50;57.60;;;;;;5205893;28;20733;-66
2022/03/11 03:53:57;;;;;;;2.80;2.20;;;17.40;57.50;;;;;;5206794;28;20593;-66
2022/03/11 03:56:49;;;;;;;2.53;2.03;;;17.40;57.50;;;;;;5206836;28;20319;-66
2022/03/11 03:59:41;;;;;;;2.20;2.00;;;17.40;57.50;;;;;;5206357;28;20208;-66
2022/03/11 04:02:33;;;;;;;2.30;2.03;;;17.40;57.60;;;;;;5217533;28;20201;-66
2022/03/11 04:05:25;;;;;;;2.83;2.07;;;17.40;57.50;;;;;;5206578;28;20236;-66
2022/03/11 04:08:21;;;;;;;2.40;2.20;;;17.40;57.60;;;;;;5207663;28;20221;-66
2022/03/11 04:11:13;;;;;;;2.80;2.10;;;17.40;57.50;;;;;;5207969;28;20221;-66
2022/03/11 04:14:05;;;;;;;1.50;1.40;;;17.40;57.50;;;;;;5206147;28;20229;-66
2022/03/11 04:16:57;;;;;;;3.03;2.07;;;17.40;57.40;;;;;;5207104;28;20679;-66
2022/03/11 04:19:50;;;;;;;2.27;2.00;;;17.40;57.30;;;;;;5205220;28;20206;-66
2022/03/11 04:22:42;;;;;;;2.23;2.00;;;17.40;57.30;;;;;;5224411;28;20255;-66
2022/03/11 04:25:35;;;;;;;2.47;2.10;;;17.40;57.30;;;;;;5226783;28;20633;-66
2022/03/11 04:28:27;;;;;;;2.53;2.10;;;17.40;57.30;;;;;;5207904;28;20449;-66
2022/03/11 04:31:20;;;;;;;2.27;1.90;;;17.40;57.30;;;;;;5206309;28;20359;-66
2022/03/11 04:34:12;;;;;;;1.87;1.57;;;17.40;57.40;;;;;;5223252;28;20221;-66
2022/03/11 04:37:05;;;;;;;1.77;1.63;;;17.40;57.40;;;;;;5225271;28;20339;-68
2022/03/11 04:39:57;;;;;;;2.60;2.00;;;17.40;57.40;;;;;;5211996;28;20218;-67
2022/03/11 04:42:51;;;;;;;3.10;2.10;;;17.40;57.30;;;;;;5205479;28;20204;-69
2022/03/11 04:45:43;;;;;;;2.47;1.87;;;17.50;57.30;;;;;;5205643;28;20352;-70
2022/03/11 04:48:36;;;;;;;2.23;2.00;;;17.50;57.30;;;;;;5206131;28;20328;-68
2022/03/11 04:51:28;;;;;;;2.57;2.00;;;17.50;57.90;;;;;;5204675;28;20225;-68
2022/03/11 04:54:21;;;;;;;2.60;2.10;;;17.50;57.30;;;;;;5203054;28;20332;-68
2022/03/11 04:57:13;;;;;;;2.33;1.87;;;17.50;57.20;;;;;;5224632;28;20197;-68
2022/03/11 05:00:08;;;;;;;3.20;2.20;;;17.50;57.10;;;;;;5206323;28;20224;-68
2022/03/11 05:03:02;;;;;;;2.23;1.93;;;17.50;57.20;;;;;;5211018;28;20206;-68
2022/03/11 05:05:54;;;;;;;2.43;2.20;;;17.50;57.20;;;;;;5202378;28;20224;-68
2022/03/11 05:08:46;;;;;;;3.00;2.07;;;17.50;57.20;;;;;;5203540;28;20308;-68
2022/03/11 05:11:38;;;;;;;2.53;1.80;;;17.50;57.20;;;;;;5220647;28;20313;-68
2022/03/11 05:14:33;;;;;;;1.97;1.80;;;17.50;57.20;;;;;;5222930;28;20350;-68
2022/03/11 05:17:28;;;;;;;2.43;2.13;;;17.50;57.20;;;;;;5223255;28;20279;-68
2022/03/11 05:20:23;;;;;;;2.40;2.20;;;17.50;57.20;;;;;;5222717;28;20340;-68
2022/03/11 05:23:15;;;;;;;2.80;2.40;;;17.50;57.30;;;;;;5222743;28;20229;-68
2022/03/11 05:26:24;;;;;;;2.43;2.00;;;17.50;57.20;;;;;;5214351;28;20344;-68
2022/03/11 05:29:16;;;;;;;2.13;1.93;;;17.50;57.20;;;;;;5202562;28;20257;-67
2022/03/11 05:32:09;;;;;;;3.00;2.13;;;17.50;57.20;;;;;;5201020;28;20375;-68
2022/03/11 05:35:03;;;;;;;2.70;2.00;;;17.50;57.20;;;;;;5202237;28;20221;-68
2022/03/11 05:37:55;;;;;;;3.40;1.97;;;17.50;57.20;;;;;;5212991;28;20336;-68
2022/03/11 05:40:47;;;;;;;3.20;2.17;;;17.50;57.20;;;;;;5201617;28;20775;-68
2022/03/11 05:43:39;;;;;;;2.80;2.20;;;17.50;57.10;;;;;;5202849;28;20239;-68
2022/03/11 05:46:32;;;;;;;2.80;2.00;;;17.50;57.10;;;;;;5204190;28;20225;-67
2022/03/11 05:49:24;;;;;;;2.33;2.10;;;17.50;57.10;;;;;;5205978;28;20275;-67
2022/03/11 05:52:17;;;;;;;2.23;2.00;;;17.50;57.10;;;;;;5224400;28;20275;-67
2022/03/11 05:55:10;;;;;;;2.43;2.10;;;17.50;57.10;;;;;;5221312;28;20190;-68
2022/03/11 05:58:03;;;;;;;1.90;1.70;;;17.50;57.00;;;;;;5204993;28;20197;-69
2022/03/11 06:00:55;;;;;;;3.57;1.93;;;17.50;57.00;;;;;;5204170;28;20304;-68
2022/03/11 06:03:47;;;;;;;3.30;1.83;;;17.50;57.10;;;;;;5204108;28;20194;-67
2022/03/11 06:06:39;;;;;;;2.40;2.20;;;17.50;57.10;;;;;;5204180;28;20273;-68
2022/03/11 06:09:33;;;;;;;2.33;2.00;;;17.50;57.10;;;;;;5212068;28;20198;-67
2022/03/11 06:12:26;;;;;;;2.73;2.20;;;17.50;57.10;;;;;;5203492;28;20679;-69
2022/03/11 06:15:18;;;;;;;3.00;2.17;;;17.50;57.00;;;;;;5205564;28;20894;-68
2022/03/11 06:18:15;;;;;;;2.40;2.10;;;17.50;57.00;;;;;;5203789;28;20284;-68
2022/03/11 06:21:08;;;;;;;2.40;1.93;;;17.50;57.00;;;;;;5231493;23;20233;-67
2022/03/11 06:24:01;;;;;;;2.70;2.07;;;17.50;57.00;;;;;;5225254;28;20343;-68
2022/03/11 06:26:54;;;;;;;2.57;2.10;;;17.50;57.00;;;;;;5225613;28;20290;-67
2022/03/11 06:29:46;;;;;;;2.97;2.37;;;17.50;57.10;;;;;;5222919;28;20218;-67
2022/03/11 06:32:41;;;;;;;4.30;2.40;;;17.50;57.10;;;;;;5239705;22;20255;-66
2022/03/11 06:35:34;;;;;;;2.70;2.03;;;17.50;57.10;;;;;;5239216;28;20649;-68
2022/03/11 06:38:26;;;;;;;2.90;2.13;;;17.50;57.00;;;;;;5230859;28;20271;-64
2022/03/11 06:41:18;;;;;;;2.53;2.00;;;17.50;57.00;;;;;;5233724;28;20935;-64
2022/03/11 06:44:12;;;;;;;2.73;2.13;;;17.50;57.00;;;;;;5228384;28;20207;-64
2022/03/11 06:47:05;;;;;;;2.47;1.90;;;17.50;56.90;;;;;;5236022;28;20299;-63
2022/03/11 06:49:57;;;;;;;3.03;1.90;;;17.50;56.90;;;;;;5231466;28;20316;-63
2022/03/11 06:52:49;;;;;;;2.20;2.00;;;17.50;56.90;;;;;;5230061;28;20197;-64
2022/03/11 06:55:41;;;;;;;2.40;2.03;;;17.50;56.90;;;;;;5233990;28;20189;-66
2022/03/11 06:58:34;;;;;;;2.90;1.90;;;17.50;56.80;;;;;;5228870;28;20189;-66
2022/03/11 07:01:27;;;;;;;3.53;2.60;;;17.50;56.80;;;;;;5217992;28;20594;-66
2022/03/11 07:04:24;;;;;;;3.20;2.53;;;17.50;55.90;;;;;;5218570;28;20275;-66
2022/03/11 07:07:16;;;;;;;2.73;1.93;;;17.40;55.60;;;;;;5224140;28;20306;-67
2022/03/11 07:10:10;;;;;;;3.33;2.20;;;17.40;55.70;;;;;;5223699;28;20722;-66
2022/03/11 07:13:03;;;;;;;3.33;2.07;;;17.40;55.70;;;;;;5222441;28;20193;-67
2022/03/11 07:15:56;;;;;;;3.40;2.70;;;17.40;55.90;;;;;;5222764;28;20185;-65
2022/03/11 07:18:49;;;;;;;2.67;2.07;;;17.40;55.80;;;;;;5224576;28;20197;-64
2022/03/11 07:21:41;;;;;;;3.03;2.07;;;17.30;56.00;;;;;;5222905;28;20579;-68
2022/03/11 07:24:34;;;;;;;3.83;2.10;;;17.30;56.00;;;;;;5223352;28;20197;-67
2022/03/11 07:27:26;;;;;;;4.93;2.50;;;17.30;56.10;;;;;;5222905;28;20841;-68
2022/03/11 07:30:18;;;;;;;3.43;2.43;;;17.30;56.10;;;;;;5222521;28;20310;-67
2022/03/11 07:33:12;;;;;;;4.70;2.87;;;17.30;56.70;;;;;;5220655;28;20205;-68
2022/03/11 07:36:06;;;;;;;2.67;2.43;;;17.30;56.10;;;;;;5224337;28;20242;-67
2022/03/11 07:38:58;;;;;;;3.37;2.40;;;17.30;56.10;;;;;;5222632;28;20339;-67
2022/03/11 07:41:50;;;;;;;2.87;2.30;;;17.30;56.30;;;;;;5222595;28;20299;-67
2022/03/11 07:44:44;;;;;;;5.17;2.60;;;17.30;56.30;;;;;;5223413;28;20672;-68
2022/03/11 07:47:36;;;;;;;3.00;2.30;;;17.30;56.40;;;;;;5223686;28;20256;-66
2022/03/11 07:50:28;;;;;;;3.10;2.50;;;17.30;56.40;;;;;;5222175;28;20304;-66
2022/03/11 07:53:21;;;;;;;3.17;2.30;;;17.30;56.40;;;;;;5222224;28;20312;-66
2022/03/11 07:56:15;;;;;;;3.23;2.40;;;17.30;56.40;;;;;;5225271;28;20237;-67
2022/03/11 07:59:07;;;;;;;4.03;2.03;;;17.30;56.40;;;;;;5227524;28;20674;-67
2022/03/11 08:02:00;;;;;;;2.80;2.47;;;17.30;56.40;;;;;;5226121;28;20615;-68
2022/03/11 08:04:52;;;;;;;2.67;2.10;;;17.30;56.50;;;;;;5225941;28;20616;-68
2022/03/11 08:07:46;;;;;;;4.00;2.30;;;17.30;56.50;;;;;;5223702;28;20193;-68
2022/03/11 08:10:39;;;;;;;2.60;2.30;;;17.30;56.60;;;;;;5227071;28;20598;-68
2022/03/11 08:13:33;;;;;;;2.93;1.93;;;17.30;56.60;;;;;;5226164;28;20539;-67
2022/03/11 08:16:25;;;;;;;3.33;2.10;;;17.30;57.30;;;;;;5227525;28;20189;-68
2022/03/11 08:19:18;;;;;;;4.07;2.57;;;17.30;57.40;;;;;;5226988;28;20190;-66
2022/03/11 08:22:11;;;;;;;2.97;2.50;;;17.40;57.60;;;;;;5225834;28;20333;-66
2022/03/11 08:25:05;;;;;;;3.20;2.00;;;17.40;57.10;;;;;;5227434;28;20302;-67
2022/03/11 08:27:59;;;;;;;3.13;2.10;;;17.40;56.60;;;;;;5226216;28;20189;-67
2022/03/11 08:30:52;;;;;;;2.60;2.00;;;17.30;56.50;;;;;;5225400;28;20778;-67
2022/03/11 08:33:44;;;;;;;3.43;2.13;;;17.30;56.50;;;;;;5226497;28;20574;-66
2022/03/11 08:36:37;;;;;;;2.97;2.30;;;17.30;56.70;;;;;;5224737;28;20213;-65
2022/03/11 08:39:29;;;;;;;2.87;2.40;;;17.30;56.60;;;;;;5225427;28;20280;-65
2022/03/11 08:42:21;;;;;;;3.33;2.50;;;17.30;56.70;;;;;;5225104;28;20193;-66
2022/03/11 08:45:15;;;;;;;3.40;2.17;;;17.30;56.60;;;;;;5212542;28;20204;-66
2022/03/11 08:48:07;;;;;;;2.80;2.20;;;17.30;56.70;;;;;;5225157;28;20197;-67
2022/03/11 08:51:00;;;;;;;3.17;2.10;;;17.30;56.60;;;;;;5225304;28;20290;-66
2022/03/11 08:53:52;;;;;;;2.70;2.00;;;17.30;56.60;;;;;;5225587;28;20716;-66
2022/03/11 08:56:45;;;;;;;3.17;2.13;;;17.30;56.70;;;;;;5226525;28;20193;-67
2022/03/11 08:59:37;;;;;;;2.67;2.10;;;17.30;56.80;;;;;;5225539;28;20597;-66
2022/03/11 09:02:31;;;;;;;2.83;2.23;;;17.30;56.60;;;;;;5218187;28;20335;-67
2022/03/11 09:05:23;;;;;;;2.57;1.97;;;17.30;56.80;;;;;;5225748;28;20197;-66
2022/03/11 09:08:15;;;;;;;2.97;2.17;;;17.30;56.90;;;;;;5225347;28;20216;-66
2022/03/11 09:11:07;;;;;;;3.10;2.13;;;17.30;57.00;;;;;;5225336;28;20221;-67
2022/03/11 09:14:00;;;;;;;2.47;2.10;;;17.30;56.90;;;;;;5225932;28;20201;-67
2022/03/11 09:16:52;;;;;;;2.90;2.30;;;17.30;56.90;;;;;;5224570;28;20196;-66
2022/03/11 09:19:46;;;;;;;2.87;2.30;;;17.30;57.50;;;;;;5225553;28;20796;-67
2022/03/11 09:22:39;;;;;;;2.70;2.10;;;17.30;56.90;;;;;;5224394;28;20201;-66
2022/03/11 09:25:31;;;;;;;2.30;1.87;;;17.30;56.80;;;;;;5224409;28;20204;-66
2022/03/11 09:28:24;;;;;;;3.50;2.50;;;17.30;56.90;;;;;;5224623;28;20221;-67
2022/03/11 09:31:16;;;;;;;2.77;2.10;;;17.30;56.90;;;;;;5223760;28;20220;-66
2022/03/11 09:34:08;;;;;;;2.90;2.43;;;17.30;57.10;;;;;;5224395;28;20262;-66
2022/03/11 09:37:02;;;;;;;2.90;2.20;;;17.30;57.00;;;;;;5224801;28;20354;-66
2022/03/11 09:39:54;;;;;;;2.60;1.70;;;17.30;56.90;;;;;;5224445;28;20606;-66
2022/03/11 09:42:46;;;;;;;2.70;1.80;;;17.30;57.00;;;;;;5224903;28;20670;-66
2022/03/11 09:45:39;;;;;;;3.10;2.00;;;17.30;56.90;;;;;;5225340;28;20713;-66
2022/03/11 09:48:31;;;;;;;3.37;1.87;;;17.30;57.00;;;;;;5224604;28;20265;-66
2022/03/11 09:51:23;;;;;;;2.40;1.80;;;17.30;56.90;;;;;;5223936;28;20716;-66
2022/03/11 09:54:17;;;;;;;2.60;2.23;;;17.30;57.00;;;;;;5224337;28;20200;-67
2022/03/11 09:57:09;;;;;;;2.57;2.03;;;17.30;57.00;;;;;;5225256;28;20342;-66
2022/03/11 10:00:04;;;;;;;2.83;2.20;;;17.30;57.00;;;;;;5224613;28;20259;-66
2022/03/11 10:02:56;;;;;;;2.33;1.87;;;17.30;57.10;;;;;;5217024;28;20197;-66
2022/03/11 10:05:50;;;;;;;2.70;2.13;;;17.30;57.20;;;;;;5224554;28;20654;-66
2022/03/11 10:08:44;;;;;;;3.23;2.10;;;17.30;57.20;;;;;;5224616;28;20201;-66
2022/03/11 10:11:38;;;;;;;3.13;2.10;;;17.30;57.10;;;;;;5223425;28;20217;-67
2022/03/11 10:14:31;;;;;;;2.50;2.10;;;17.30;57.10;;;;;;5224811;28;20193;-66
2022/03/11 10:17:23;;;;;;;2.47;2.00;;;17.30;57.10;;;;;;5225110;28;20268;-67
2022/03/11 10:20:17;;;;;;;3.93;2.40;;;17.30;57.10;;;;;;5223013;28;20821;-67
2022/03/11 10:23:11;;;;;;;1.73;1.40;;;17.30;57.20;;;;;;5204767;28;20692;-67
2022/03/11 10:26:03;;;;;;;2.97;2.40;;;17.30;57.20;;;;;;5223708;28;20764;-67
2022/03/11 10:28:59;;;;;;;3.43;2.00;;;17.30;57.10;;;;;;5223520;28;20280;-67
2022/03/11 10:31:52;;;;;;;2.30;1.70;;;17.30;57.80;;;;;;5222604;28;20224;-66
2022/03/11 10:34:45;;;;;;;2.73;2.00;;;17.30;57.10;;;;;;5223522;28;20239;-67
2022/03/11 10:37:37;;;;;;;2.43;2.03;;;17.30;57.20;;;;;;5223385;28;20186;-67
2022/03/11 10:40:30;;;;;;;2.33;1.90;;;17.30;57.20;;;;;;5212913;28;20244;-67
2022/03/11 10:43:25;;;;;;;2.50;2.00;;;17.30;57.30;;;;;;5218628;28;20200;-66
2022/03/11 10:46:25;;;;;;;2.27;1.77;;;17.30;58.00;;;;;;5215279;28;20213;-67
2022/03/11 10:49:31;;;;;;;2.83;1.83;;;17.30;58.00;;;;;;5204225;28;20229;-67
2022/03/11 10:52:32;;;;;;;2.07;1.80;;;17.40;58.00;;;;;;5223056;28;20658;-66
2022/03/11 10:55:26;;;;;;;2.73;1.90;;;17.40;58.10;;;;;;5223824;28;20274;-67
2022/03/11 10:58:18;;;;;;;3.67;1.97;;;17.40;58.00;;;;;;5224241;28;20185;-67
2022/03/11 11:01:10;;;;;;;3.00;1.90;;;17.40;58.00;;;;;;5220646;28;20228;-67
2022/03/11 11:04:07;;;;;;;2.10;1.70;;;17.40;58.00;;;;;;5222596;28;20361;-67
2022/03/11 11:06:59;;;;;;;2.80;2.00;;;17.40;58.00;;;;;;5224108;28;20686;-67
2022/03/11 11:09:51;;;;;;;2.30;1.90;;;17.40;58.00;;;;;;5223786;28;20283;-67
2022/03/11 11:12:44;;;;;;;2.33;1.70;;;17.40;58.00;;;;;;5223657;28;20695;-66
2022/03/11 11:15:38;;;;;;;2.80;1.93;;;17.40;58.00;;;;;;5224182;28;20240;-66
2022/03/11 11:18:32;;;;;;;2.87;2.13;;;17.40;57.90;;;;;;5224235;28;20197;-66
2022/03/11 11:21:27;;;;;;;2.37;1.80;;;17.40;57.90;;;;;;5222108;28;20216;-67
2022/03/11 11:24:20;;;;;;;2.87;1.63;;;17.40;57.90;;;;;;5223808;28;20236;-66
2022/03/11 11:27:14;;;;;;;3.97;1.93;;;17.40;58.40;;;;;;5223025;28;20338;-67
2022/03/11 11:30:07;;;;;;;2.30;1.70;;;17.40;57.80;;;;;;5224499;28;20216;-68
2022/03/11 11:33:01;;;;;;;6.37;1.77;;;17.40;58.00;;;;;;5225003;28;20290;-66
2022/03/11 11:35:57;;;;;;;5.97;1.93;;;17.40;57.90;;;;;;5227431;28;20331;-67
2022/03/11 11:38:51;;;;;;;4.93;2.03;;;17.40;58.40;;;;;;5227256;28;20777;-67
2022/03/11 11:41:52;;;;;;;3.33;2.20;;;17.40;57.70;;;;;;5225971;28;20343;-67
2022/03/11 11:44:45;;;;;;;3.07;1.90;;;17.40;57.70;;;;;;5227453;28;20251;-66
2022/03/11 11:47:37;;;;;;;1.87;1.60;;;17.50;57.60;;;;;;5227404;28;20291;-67
2022/03/11 11:50:44;;;;;;;3.27;1.70;;;17.40;57.60;;;;;;5226609;28;20216;-67
2022/03/11 11:53:40;;;;;;;3.50;1.83;;;17.40;57.50;;;;;;5227214;28;20196;-67
2022/03/11 11:56:36;;;;;;;3.57;1.90;;;17.50;57.60;;;;;;5227522;28;20764;-66
2022/03/11 11:59:32;;;;;;;3.03;1.87;;;17.50;57.60;;;;;;5226883;28;20280;-67
2022/03/11 12:02:42;;;;;;;3.10;1.90;;;17.50;57.60;;;;;;5219556;28;20196;-66
2022/03/11 12:05:42;;;;;;;1.87;1.60;;;17.50;57.60;;;;;;5225975;28;20735;-66
2022/03/11 12:08:50;;;;;;;2.77;1.80;;;17.50;57.40;;;;;;5226521;28;20220;-65
2022/03/11 12:11:44;;;;;;;2.87;2.00;;;17.40;57.30;;;;;;5204636;28;20218;-64
2022/03/11 12:15:09;;;;;;;2.60;1.80;;;17.50;57.50;;;;;;5206197;28;20198;-64
2022/03/11 12:18:02;;;;;;;2.17;1.70;;;17.50;57.50;;;;;;5205683;28;20275;-65
2022/03/11 12:20:54;;;;;;;2.30;1.83;;;17.50;57.50;;;;;;5234354;22;20221;-68
2022/03/11 12:23:48;;;;;;;3.17;1.47;;;17.40;57.30;;;;;;5222146;28;20197;-68
2022/03/11 12:26:40;;;;;;;4.97;2.37;;;17.50;57.20;;;;;;5226100;28;20331;-68
2022/03/11 12:29:35;;;;;;;3.03;2.17;;;17.50;57.10;;;;;;5227231;28;20698;-68
2022/03/11 12:32:27;;;;;;;2.43;2.10;;;17.50;57.30;;;;;;5200517;28;20205;-68
2022/03/11 12:35:20;;;;;;;3.10;1.97;;;17.40;57.40;;;;;;5207226;28;20259;-68
2022/03/11 12:38:14;;;;;;;2.87;1.87;;;17.50;57.50;;;;;;5207072;28;20320;-67
2022/03/11 12:41:10;;;;;;;2.47;1.90;;;17.50;57.40;;;;;;5197491;28;20348;-67
2022/03/11 12:44:02;;;;;;;3.13;2.00;;;17.50;57.20;;;;;;5205756;28;20205;-66
2022/03/11 12:46:56;;;;;;;3.67;1.73;;;17.50;57.30;;;;;;5206532;28;20214;-67
2022/03/11 12:50:00;;;;;;;3.70;2.10;;;17.50;57.30;;;;;;5205699;28;20617;-67
2022/03/11 12:52:54;;;;;;;3.60;2.00;;;17.50;57.40;;;;;;5207569;28;20279;-71
2022/03/11 12:55:49;;;;;;;5.67;2.40;;;17.50;57.50;;;;;;5206884;28;20202;-66
2022/03/11 12:58:41;;;;;;;4.10;2.70;;;17.50;57.30;;;;;;5207082;28;20194;-70
2022/03/11 13:01:33;;;;;;;3.37;2.13;;;17.40;57.20;;;;;;5204197;28;20213;-67
2022/03/11 13:04:27;;;;;;;4.60;2.40;;;17.50;57.70;;;;;;5206206;28;20280;-66
2022/03/11 13:07:19;;;;;;;3.97;2.10;;;17.50;57.20;;;;;;5206010;28;20680;-66
2022/03/11 13:10:17;;;;;;;3.80;2.53;;;17.50;57.10;;;;;;5206655;28;20708;-66
2022/03/11 13:13:11;;;;;;;4.63;2.90;;;17.40;57.30;;;;;;5204766;28;20469;-65
2022/03/11 13:16:04;;;;;;;6.27;2.43;;;17.40;57.10;;;;;;5205947;28;20194;-66
2022/03/11 13:19:04;;;;;;;7.97;2.60;;;17.40;57.10;;;;;;5206499;28;20282;-66
2022/03/11 13:21:58;;;;;;;4.40;2.37;;;17.40;57.10;;;;;;5205911;28;20278;-66
2022/03/11 13:25:03;;;;;;;3.00;2.23;;;17.40;57.10;;;;;;5206200;28;20201;-66
2022/03/11 13:27:58;;;;;;;3.77;2.50;;;17.40;57.30;;;;;;5205401;28;20629;-67
2022/03/11 13:30:51;;;;;;;3.67;2.47;;;17.40;57.30;;;;;;5206326;28;20291;-66
2022/03/11 13:33:45;;;;;;;4.57;2.53;;;17.40;57.40;;;;;;5205775;28;20198;-66
2022/03/11 13:36:39;;;;;;;3.87;2.30;;;17.40;57.50;;;;;;5206618;28;20201;-66
2022/03/11 13:39:33;;;;;;;4.00;2.40;;;17.40;57.50;;;;;;5205143;28;20791;-66
2022/03/11 13:42:27;;;;;;;4.60;2.07;;;17.40;57.50;;;;;;5204833;28;20641;-66
2022/03/11 13:45:19;;;;;;;3.60;2.47;;;17.40;57.60;;;;;;5204297;28;20284;-66
2022/03/11 13:48:12;;;;;;;3.60;2.20;;;17.40;57.60;;;;;;5205233;28;20221;-66
2022/03/11 13:51:08;;;;;;;4.97;2.10;;;17.40;57.70;;;;;;5190133;28;20246;-65
2022/03/11 13:54:00;;;;;;;3.20;2.40;;;17.40;57.70;;;;;;5184015;28;20199;-66
2022/03/11 13:56:56;;;;;;;3.10;2.00;;;17.40;58.40;;;;;;5186359;28;20539;-66
2022/03/11 13:59:50;;;;;;;3.43;2.30;;;17.40;57.70;;;;;;5185812;28;20203;-66
2022/03/11 14:02:42;;;;;;;4.30;2.33;;;17.40;57.70;;;;;;5199313;28;20241;-66
2022/03/11 14:05:41;;;;;;;3.00;2.30;;;17.40;57.70;;;;;;5209078;28;20194;-66
2022/03/11 14:08:33;;;;;;;3.93;2.40;;;17.40;57.60;;;;;;5185008;28;20677;-66
2022/03/11 14:11:25;;;;;;;2.57;1.80;;;17.40;57.60;;;;;;5205610;28;20225;-66
2022/03/11 14:14:30;;;;;;;3.73;2.10;;;17.40;57.70;;;;;;5198808;28;20282;-66
2022/03/11 14:17:30;;;;;;;3.10;2.30;;;17.40;57.80;;;;;;5204850;28;20198;-66
2022/03/11 14:20:22;;;;;;;6.30;2.13;;;17.40;57.90;;;;;;5204664;28;20225;-66
2022/03/11 14:23:15;;;;;;;3.27;2.00;;;17.40;57.90;;;;;;5205271;28;20205;-66
2022/03/11 14:26:07;;;;;;;2.80;1.90;;;17.40;58.00;;;;;;5204814;28;20247;-66
2022/03/11 14:28:59;;;;;;;2.57;1.80;;;17.40;58.00;;;;;;5204081;28;20256;-66
2022/03/11 14:31:52;;;;;;;3.63;2.17;;;17.40;57.90;;;;;;5203637;28;20298;-66
2022/03/11 14:34:45;;;;;;;3.30;1.87;;;17.40;58.00;;;;;;5204647;28;20201;-66
2022/03/11 14:37:37;;;;;;;3.07;2.10;;;17.40;58.00;;;;;;5204304;28;20277;-66
2022/03/11 14:40:29;;;;;;;2.77;2.23;;;17.40;58.00;;;;;;5205011;28;20341;-66
2022/03/11 14:43:22;;;;;;;2.50;2.10;;;17.40;58.00;;;;;;5204548;28;20208;-66
2022/03/11 14:46:14;;;;;;;3.73;2.13;;;17.40;58.00;;;;;;5204652;28;20213;-66
2022/03/11 14:49:08;;;;;;;4.60;2.20;;;17.50;58.10;;;;;;5204826;28;20303;-66
2022/03/11 14:52:01;;;;;;;3.00;2.00;;;17.40;58.00;;;;;;5203274;28;20701;-65
2022/03/11 14:54:53;;;;;;;3.23;2.03;;;17.40;58.00;;;;;;5204436;28;20198;-70
2022/03/11 14:57:45;;;;;;;4.00;2.10;;;17.40;58.30;;;;;;5204803;28;20738;-71
2022/03/11 15:00:37;;;;;;;3.43;1.60;;;17.50;58.60;;;;;;5204519;28;20639;-67
2022/03/11 15:03:30;;;;;;;3.27;1.83;;;17.50;58.60;;;;;;5198405;28;20259;-67